sensor_id;sensor_type;location;lat;lon;timestamp;P1;durP1;ratioP1;P2;durP2;ratioP2
15271;SDS011;7737;51.578;7.268;2023-05-08T00:00:07;20.42;;;18.73;;
15271;SDS011;7737;51.578;7.268;2023-05-08T00:02:34;20.88;;;19.08;;
15271;SDS011;7737;51.578;7.268;2023-05-08T00:05:01;21.50;;;19.50;;
15271;SDS011;7737;51.578;7.268;2023-05-08T00:07:29;20.80;;;18.90;;
15271;SDS011;7737;51.578;7.268;2023-05-08T00:09:56;21.17;;;19.27;;
15271;SDS011;7737;51.578;7.268;2023-05-08T00:12:23;20.17;;;18.38;;
15271;SDS011;7737;51.578;7.268;2023-05-08T00:14:49;20.88;;;19.08;;
15271;SDS011;7737;51.578;7.268;2023-05-08T00:17:16;21.27;;;19.48;;
15271;SDS011;7737;51.578;7.268;2023-05-08T00:19:42;21.35;;;19.42;;
15271;SDS011;7737;51.578;7.268;2023-05-08T00:22:09;22.60;;;20.50;;
15271;SDS011;7737;51.578;7.268;2023-05-08T00:24:37;21.73;;;19.73;;
15271;SDS011;7737;51.578;7.268;2023-05-08T00:27:03;20.83;;;19.13;;
15271;SDS011;7737;51.578;7.268;2023-05-08T00:29:30;22.02;;;20.13;;
15271;SDS011;7737;51.578;7.268;2023-05-08T00:31:57;20.80;;;19.10;;
15271;SDS011;7737;51.578;7.268;2023-05-08T00:34:23;21.88;;;19.95;;
15271;SDS011;7737;51.578;7.268;2023-05-08T00:36:50;21.30;;;19.52;;
15271;SDS011;7737;51.578;7.268;2023-05-08T00:39:17;21.50;;;19.60;;
15271;SDS011;7737;51.578;7.268;2023-05-08T00:41:45;20.85;;;19.02;;
15271;SDS011;7737;51.578;7.268;2023-05-08T00:44:11;21.67;;;19.73;;
15271;SDS011;7737;51.578;7.268;2023-05-08T00:46:38;20.83;;;18.85;;
15271;SDS011;7737;51.578;7.268;2023-05-08T00:49:06;21.33;;;19.42;;
15271;SDS011;7737;51.578;7.268;2023-05-08T00:51:35;20.27;;;18.50;;
15271;SDS011;7737;51.578;7.268;2023-05-08T00:54:02;19.85;;;18.20;;
15271;SDS011;7737;51.578;7.268;2023-05-08T00:56:29;21.08;;;19.13;;
15271;SDS011;7737;51.578;7.268;2023-05-08T00:58:59;19.48;;;17.88;;
15271;SDS011;7737;51.578;7.268;2023-05-08T01:01:26;20.13;;;18.42;;
15271;SDS011;7737;51.578;7.268;2023-05-08T01:03:52;19.02;;;17.50;;
15271;SDS011;7737;51.578;7.268;2023-05-08T01:06:19;19.40;;;17.80;;
15271;SDS011;7737;51.578;7.268;2023-05-08T01:08:45;18.80;;;17.30;;
15271;SDS011;7737;51.578;7.268;2023-05-08T01:11:14;19.65;;;17.98;;
15271;SDS011;7737;51.578;7.268;2023-05-08T01:13:48;19.55;;;17.85;;
15271;SDS011;7737;51.578;7.268;2023-05-08T01:16:19;18.50;;;16.92;;
15271;SDS011;7737;51.578;7.268;2023-05-08T01:18:55;18.90;;;17.40;;
15271;SDS011;7737;51.578;7.268;2023-05-08T01:21:28;18.73;;;17.13;;
15271;SDS011;7737;51.578;7.268;2023-05-08T01:24:18;17.90;;;16.48;;
15271;SDS011;7737;51.578;7.268;2023-05-08T01:30:11;18.52;;;16.92;;
15271;SDS011;7737;51.578;7.268;2023-05-08T01:32:54;18.17;;;16.77;;
15271;SDS011;7737;51.578;7.268;2023-05-08T01:35:26;18.10;;;16.58;;
15271;SDS011;7737;51.578;7.268;2023-05-08T01:37:56;18.80;;;17.05;;
15271;SDS011;7737;51.578;7.268;2023-05-08T01:40:31;19.67;;;17.98;;
15271;SDS011;7737;51.578;7.268;2023-05-08T01:43:05;18.02;;;16.60;;
15271;SDS011;7737;51.578;7.268;2023-05-08T01:45:38;18.42;;;16.80;;
15271;SDS011;7737;51.578;7.268;2023-05-08T01:48:09;18.48;;;16.98;;
15271;SDS011;7737;51.578;7.268;2023-05-08T01:50:39;19.40;;;17.40;;
15271;SDS011;7737;51.578;7.268;2023-05-08T01:53:12;18.63;;;16.92;;
15271;SDS011;7737;51.578;7.268;2023-05-08T01:55:45;18.73;;;17.02;;
15271;SDS011;7737;51.578;7.268;2023-05-08T01:58:13;19.35;;;17.83;;
15271;SDS011;7737;51.578;7.268;2023-05-08T02:00:41;18.75;;;17.17;;
15271;SDS011;7737;51.578;7.268;2023-05-08T02:03:10;18.45;;;16.88;;
15271;SDS011;7737;51.578;7.268;2023-05-08T02:05:39;19.00;;;17.40;;
15271;SDS011;7737;51.578;7.268;2023-05-08T02:08:08;18.23;;;16.73;;
15271;SDS011;7737;51.578;7.268;2023-05-08T02:10:38;17.63;;;16.15;;
15271;SDS011;7737;51.578;7.268;2023-05-08T02:13:06;16.25;;;14.95;;
15271;SDS011;7737;51.578;7.268;2023-05-08T02:15:35;16.02;;;14.73;;
15271;SDS011;7737;51.578;7.268;2023-05-08T02:18:04;16.95;;;15.65;;
15271;SDS011;7737;51.578;7.268;2023-05-08T02:20:34;16.85;;;15.35;;
15271;SDS011;7737;51.578;7.268;2023-05-08T02:23:03;16.20;;;14.90;;
15271;SDS011;7737;51.578;7.268;2023-05-08T02:25:31;16.83;;;15.32;;
15271;SDS011;7737;51.578;7.268;2023-05-08T02:27:58;16.67;;;15.18;;
15271;SDS011;7737;51.578;7.268;2023-05-08T02:30:26;16.25;;;14.85;;
15271;SDS011;7737;51.578;7.268;2023-05-08T02:32:54;16.70;;;15.40;;
15271;SDS011;7737;51.578;7.268;2023-05-08T02:35:22;15.98;;;14.63;;
15271;SDS011;7737;51.578;7.268;2023-05-08T02:37:52;16.10;;;14.80;;
15271;SDS011;7737;51.578;7.268;2023-05-08T02:40:21;16.70;;;15.18;;
15271;SDS011;7737;51.578;7.268;2023-05-08T02:42:51;16.17;;;14.80;;
15271;SDS011;7737;51.578;7.268;2023-05-08T02:45:17;15.63;;;14.27;;
15271;SDS011;7737;51.578;7.268;2023-05-08T02:47:45;15.75;;;14.35;;
15271;SDS011;7737;51.578;7.268;2023-05-08T02:50:17;15.52;;;14.10;;
15271;SDS011;7737;51.578;7.268;2023-05-08T02:52:47;14.68;;;13.48;;
15271;SDS011;7737;51.578;7.268;2023-05-08T02:55:21;15.70;;;14.50;;
15271;SDS011;7737;51.578;7.268;2023-05-08T02:57:56;15.65;;;14.40;;
15271;SDS011;7737;51.578;7.268;2023-05-08T03:00:31;16.15;;;14.90;;
15271;SDS011;7737;51.578;7.268;2023-05-08T03:03:04;16.90;;;15.43;;
15271;SDS011;7737;51.578;7.268;2023-05-08T03:05:36;17.10;;;15.60;;
15271;SDS011;7737;51.578;7.268;2023-05-08T03:08:09;17.50;;;16.02;;
15271;SDS011;7737;51.578;7.268;2023-05-08T03:10:42;17.13;;;15.63;;
15271;SDS011;7737;51.578;7.268;2023-05-08T03:13:11;17.10;;;15.70;;
15271;SDS011;7737;51.578;7.268;2023-05-08T03:15:41;17.02;;;15.63;;
15271;SDS011;7737;51.578;7.268;2023-05-08T03:18:10;16.25;;;14.98;;
15271;SDS011;7737;51.578;7.268;2023-05-08T03:20:42;17.15;;;15.75;;
15271;SDS011;7737;51.578;7.268;2023-05-08T03:23:11;16.58;;;15.18;;
15271;SDS011;7737;51.578;7.268;2023-05-08T03:25:42;16.58;;;15.18;;
15271;SDS011;7737;51.578;7.268;2023-05-08T03:28:09;17.25;;;15.75;;
15271;SDS011;7737;51.578;7.268;2023-05-08T03:30:36;17.38;;;15.85;;
15271;SDS011;7737;51.578;7.268;2023-05-08T03:33:05;16.50;;;15.00;;
15271;SDS011;7737;51.578;7.268;2023-05-08T03:35:32;15.50;;;14.10;;
15271;SDS011;7737;51.578;7.268;2023-05-08T03:38:01;16.33;;;14.93;;
15271;SDS011;7737;51.578;7.268;2023-05-08T03:40:27;15.30;;;13.80;;
15271;SDS011;7737;51.578;7.268;2023-05-08T03:42:55;15.68;;;14.48;;
15271;SDS011;7737;51.578;7.268;2023-05-08T03:45:25;15.23;;;13.93;;
15271;SDS011;7737;51.578;7.268;2023-05-08T03:47:53;16.15;;;14.85;;
15271;SDS011;7737;51.578;7.268;2023-05-08T03:50:20;16.48;;;14.98;;
15271;SDS011;7737;51.578;7.268;2023-05-08T03:52:48;16.05;;;14.77;;
15271;SDS011;7737;51.578;7.268;2023-05-08T03:55:15;15.50;;;14.27;;
15271;SDS011;7737;51.578;7.268;2023-05-08T03:57:44;16.20;;;14.80;;
15271;SDS011;7737;51.578;7.268;2023-05-08T04:00:24;15.82;;;14.43;;
15271;SDS011;7737;51.578;7.268;2023-05-08T04:03:01;15.77;;;14.38;;
15271;SDS011;7737;51.578;7.268;2023-05-08T04:05:40;16.67;;;15.18;;
15271;SDS011;7737;51.578;7.268;2023-05-08T04:08:14;16.77;;;15.38;;
15271;SDS011;7737;51.578;7.268;2023-05-08T04:10:45;15.73;;;14.43;;
15271;SDS011;7737;51.578;7.268;2023-05-08T04:13:15;16.42;;;15.02;;
15271;SDS011;7737;51.578;7.268;2023-05-08T04:15:47;16.67;;;15.23;;
15271;SDS011;7737;51.578;7.268;2023-05-08T04:18:17;19.15;;;17.45;;
15271;SDS011;7737;51.578;7.268;2023-05-08T04:20:47;17.85;;;16.30;;
15271;SDS011;7737;51.578;7.268;2023-05-08T04:23:17;18.45;;;16.85;;
15271;SDS011;7737;51.578;7.268;2023-05-08T04:25:47;18.27;;;16.77;;
15271;SDS011;7737;51.578;7.268;2023-05-08T04:28:16;19.02;;;17.42;;
15271;SDS011;7737;51.578;7.268;2023-05-08T04:30:44;19.05;;;17.25;;
15271;SDS011;7737;51.578;7.268;2023-05-08T04:33:12;19.48;;;17.77;;
15271;SDS011;7737;51.578;7.268;2023-05-08T04:35:39;19.77;;;17.73;;
15271;SDS011;7737;51.578;7.268;2023-05-08T04:38:06;20.48;;;18.55;;
15271;SDS011;7737;51.578;7.268;2023-05-08T04:40:33;19.75;;;18.10;;
15271;SDS011;7737;51.578;7.268;2023-05-08T04:42:59;18.65;;;17.02;;
15271;SDS011;7737;51.578;7.268;2023-05-08T04:45:26;19.23;;;17.42;;
15271;SDS011;7737;51.578;7.268;2023-05-08T04:47:52;20.20;;;18.58;;
15271;SDS011;7737;51.578;7.268;2023-05-08T04:50:20;19.38;;;17.67;;
15271;SDS011;7737;51.578;7.268;2023-05-08T04:52:46;20.17;;;18.45;;
15271;SDS011;7737;51.578;7.268;2023-05-08T04:55:13;20.98;;;19.17;;
15271;SDS011;7737;51.578;7.268;2023-05-08T04:57:40;20.98;;;18.95;;
15271;SDS011;7737;51.578;7.268;2023-05-08T05:00:07;21.90;;;19.90;;
15271;SDS011;7737;51.578;7.268;2023-05-08T05:02:34;22.02;;;20.00;;
15271;SDS011;7737;51.578;7.268;2023-05-08T05:05:01;21.13;;;19.33;;
15271;SDS011;7737;51.578;7.268;2023-05-08T05:07:29;20.95;;;19.00;;
15271;SDS011;7737;51.578;7.268;2023-05-08T05:09:55;20.80;;;19.00;;
15271;SDS011;7737;51.578;7.268;2023-05-08T05:12:22;20.10;;;18.40;;
15271;SDS011;7737;51.578;7.268;2023-05-08T05:14:48;19.50;;;17.80;;
15271;SDS011;7737;51.578;7.268;2023-05-08T05:17:15;19.30;;;17.50;;
15271;SDS011;7737;51.578;7.268;2023-05-08T05:19:41;19.70;;;17.90;;
15271;SDS011;7737;51.578;7.268;2023-05-08T05:22:08;20.33;;;18.63;;
15271;SDS011;7737;51.578;7.268;2023-05-08T05:24:35;19.73;;;18.00;;
15271;SDS011;7737;51.578;7.268;2023-05-08T05:27:03;20.02;;;18.33;;
15271;SDS011;7737;51.578;7.268;2023-05-08T05:29:30;21.60;;;19.65;;
15271;SDS011;7737;51.578;7.268;2023-05-08T05:31:56;20.77;;;19.08;;
15271;SDS011;7737;51.578;7.268;2023-05-08T05:34:23;21.58;;;19.60;;
15271;SDS011;7737;51.578;7.268;2023-05-08T05:36:49;20.52;;;18.63;;
15271;SDS011;7737;51.578;7.268;2023-05-08T05:39:16;20.23;;;18.50;;
15271;SDS011;7737;51.578;7.268;2023-05-08T05:41:44;20.48;;;18.65;;
15271;SDS011;7737;51.578;7.268;2023-05-08T05:44:10;20.00;;;18.30;;
15271;SDS011;7737;51.578;7.268;2023-05-08T05:46:37;20.58;;;18.52;;
15271;SDS011;7737;51.578;7.268;2023-05-08T05:49:03;20.30;;;18.55;;
15271;SDS011;7737;51.578;7.268;2023-05-08T05:51:30;21.67;;;19.77;;
15271;SDS011;7737;51.578;7.268;2023-05-08T05:53:56;21.23;;;19.30;;
15271;SDS011;7737;51.578;7.268;2023-05-08T05:56:23;21.05;;;19.17;;
15271;SDS011;7737;51.578;7.268;2023-05-08T05:58:50;22.25;;;20.05;;
15271;SDS011;7737;51.578;7.268;2023-05-08T06:01:17;21.95;;;19.85;;
15271;SDS011;7737;51.578;7.268;2023-05-08T06:03:43;22.35;;;20.17;;
15271;SDS011;7737;51.578;7.268;2023-05-08T06:06:10;22.85;;;20.45;;
15271;SDS011;7737;51.578;7.268;2023-05-08T06:08:36;25.30;;;21.23;;
15271;SDS011;7737;51.578;7.268;2023-05-08T06:11:03;23.00;;;20.63;;
15271;SDS011;7737;51.578;7.268;2023-05-08T06:13:29;22.70;;;20.30;;
15271;SDS011;7737;51.578;7.268;2023-05-08T06:15:57;22.08;;;20.00;;
15271;SDS011;7737;51.578;7.268;2023-05-08T06:18:24;24.10;;;20.67;;
15271;SDS011;7737;51.578;7.268;2023-05-08T06:20:54;23.08;;;20.20;;
15271;SDS011;7737;51.578;7.268;2023-05-08T06:23:21;21.30;;;19.35;;
15271;SDS011;7737;51.578;7.268;2023-05-08T06:25:48;23.27;;;21.00;;
15271;SDS011;7737;51.578;7.268;2023-05-08T06:28:14;24.48;;;21.75;;
15271;SDS011;7737;51.578;7.268;2023-05-08T06:30:41;21.85;;;19.90;;
15271;SDS011;7737;51.578;7.268;2023-05-08T06:33:09;22.77;;;20.67;;
15271;SDS011;7737;51.578;7.268;2023-05-08T06:35:36;22.95;;;20.98;;
15271;SDS011;7737;51.578;7.268;2023-05-08T06:38:03;22.27;;;19.90;;
15271;SDS011;7737;51.578;7.268;2023-05-08T06:40:30;21.73;;;19.60;;
15271;SDS011;7737;51.578;7.268;2023-05-08T06:42:56;21.58;;;19.58;;
15271;SDS011;7737;51.578;7.268;2023-05-08T06:45:23;21.60;;;19.60;;
15271;SDS011;7737;51.578;7.268;2023-05-08T06:47:49;22.50;;;20.50;;
15271;SDS011;7737;51.578;7.268;2023-05-08T06:50:17;23.08;;;21.08;;
15271;SDS011;7737;51.578;7.268;2023-05-08T06:52:44;23.95;;;21.15;;
15271;SDS011;7737;51.578;7.268;2023-05-08T06:55:10;22.88;;;20.67;;
15271;SDS011;7737;51.578;7.268;2023-05-08T06:57:37;22.25;;;19.92;;
15271;SDS011;7737;51.578;7.268;2023-05-08T07:00:04;20.35;;;18.42;;
15271;SDS011;7737;51.578;7.268;2023-05-08T07:02:31;20.10;;;18.02;;
15271;SDS011;7737;51.578;7.268;2023-05-08T07:04:58;20.77;;;18.75;;
15271;SDS011;7737;51.578;7.268;2023-05-08T07:07:26;19.23;;;17.40;;
15271;SDS011;7737;51.578;7.268;2023-05-08T07:09:52;19.25;;;17.50;;
15271;SDS011;7737;51.578;7.268;2023-05-08T07:12:19;18.20;;;16.50;;
15271;SDS011;7737;51.578;7.268;2023-05-08T07:14:45;17.42;;;15.90;;
15271;SDS011;7737;51.578;7.268;2023-05-08T07:17:13;17.80;;;16.20;;
15271;SDS011;7737;51.578;7.268;2023-05-08T07:19:39;17.02;;;15.52;;
15271;SDS011;7737;51.578;7.268;2023-05-08T07:22:06;16.63;;;15.02;;
15271;SDS011;7737;51.578;7.268;2023-05-08T07:24:34;17.55;;;15.95;;
15271;SDS011;7737;51.578;7.268;2023-05-08T07:27:00;16.33;;;14.88;;
15271;SDS011;7737;51.578;7.268;2023-05-08T07:29:27;16.90;;;15.20;;
15271;SDS011;7737;51.578;7.268;2023-05-08T07:31:53;16.80;;;15.05;;
15271;SDS011;7737;51.578;7.268;2023-05-08T07:34:20;16.90;;;15.07;;
15271;SDS011;7737;51.578;7.268;2023-05-08T07:36:47;15.43;;;13.88;;
15271;SDS011;7737;51.578;7.268;2023-05-08T07:39:13;16.25;;;14.38;;
15271;SDS011;7737;51.578;7.268;2023-05-08T07:41:41;15.23;;;13.80;;
15271;SDS011;7737;51.578;7.268;2023-05-08T07:44:09;13.50;;;12.20;;
15271;SDS011;7737;51.578;7.268;2023-05-08T07:46:36;12.60;;;11.07;;
15271;SDS011;7737;51.578;7.268;2023-05-08T07:49:02;14.60;;;12.75;;
15271;SDS011;7737;51.578;7.268;2023-05-08T07:51:30;11.27;;;10.20;;
15271;SDS011;7737;51.578;7.268;2023-05-08T07:53:57;11.93;;;10.75;;
15271;SDS011;7737;51.578;7.268;2023-05-08T07:56:23;11.15;;;9.88;;
15271;SDS011;7737;51.578;7.268;2023-05-08T07:58:52;14.32;;;12.93;;
15271;SDS011;7737;51.578;7.268;2023-05-08T08:01:19;10.70;;;9.80;;
15271;SDS011;7737;51.578;7.268;2023-05-08T08:03:45;10.65;;;9.73;;
15271;SDS011;7737;51.578;7.268;2023-05-08T08:06:12;10.65;;;9.10;;
15271;SDS011;7737;51.578;7.268;2023-05-08T08:08:39;10.00;;;9.00;;
15271;SDS011;7737;51.578;7.268;2023-05-08T08:11:05;10.40;;;9.38;;
15271;SDS011;7737;51.578;7.268;2023-05-08T08:13:32;10.52;;;9.48;;
15271;SDS011;7737;51.578;7.268;2023-05-08T08:16:00;10.50;;;9.50;;
15271;SDS011;7737;51.578;7.268;2023-05-08T08:18:28;12.85;;;10.35;;
15271;SDS011;7737;51.578;7.268;2023-05-08T08:20:55;11.32;;;10.23;;
15271;SDS011;7737;51.578;7.268;2023-05-08T08:23:21;11.07;;;10.07;;
15271;SDS011;7737;51.578;7.268;2023-05-08T08:25:48;10.55;;;9.52;;
15271;SDS011;7737;51.578;7.268;2023-05-08T08:28:14;11.07;;;10.07;;
15271;SDS011;7737;51.578;7.268;2023-05-08T08:30:42;11.00;;;9.93;;
15271;SDS011;7737;51.578;7.268;2023-05-08T08:33:10;10.45;;;9.45;;
15271;SDS011;7737;51.578;7.268;2023-05-08T08:35:36;9.98;;;8.95;;
15271;SDS011;7737;51.578;7.268;2023-05-08T08:38:03;10.48;;;8.30;;
15271;SDS011;7737;51.578;7.268;2023-05-08T08:40:29;10.00;;;8.73;;
15271;SDS011;7737;51.578;7.268;2023-05-08T08:42:56;10.02;;;9.02;;
15271;SDS011;7737;51.578;7.268;2023-05-08T08:45:22;9.27;;;8.32;;
15271;SDS011;7737;51.578;7.268;2023-05-08T08:47:50;9.95;;;9.05;;
15271;SDS011;7737;51.578;7.268;2023-05-08T08:50:19;9.48;;;8.50;;
15271;SDS011;7737;51.578;7.268;2023-05-08T08:52:51;8.55;;;7.75;;
15271;SDS011;7737;51.578;7.268;2023-05-08T08:55:25;8.50;;;7.70;;
15271;SDS011;7737;51.578;7.268;2023-05-08T08:57:55;8.95;;;7.75;;
15271;SDS011;7737;51.578;7.268;2023-05-08T09:00:32;8.10;;;7.32;;
15271;SDS011;7737;51.578;7.268;2023-05-08T09:03:01;9.32;;;6.70;;
15271;SDS011;7737;51.578;7.268;2023-05-08T09:05:31;6.90;;;6.13;;
15271;SDS011;7737;51.578;7.268;2023-05-08T09:07:58;6.93;;;5.20;;
15271;SDS011;7737;51.578;7.268;2023-05-08T09:10:25;4.90;;;4.40;;
15271;SDS011;7737;51.578;7.268;2023-05-08T09:12:52;5.72;;;4.72;;
15271;SDS011;7737;51.578;7.268;2023-05-08T09:15:19;5.00;;;3.85;;
15271;SDS011;7737;51.578;7.268;2023-05-08T09:17:46;4.47;;;3.38;;
15271;SDS011;7737;51.578;7.268;2023-05-08T09:20:13;7.00;;;3.83;;
15271;SDS011;7737;51.578;7.268;2023-05-08T09:22:41;5.60;;;3.83;;
15271;SDS011;7737;51.578;7.268;2023-05-08T09:25:08;5.10;;;3.58;;
15271;SDS011;7737;51.578;7.268;2023-05-08T09:27:35;4.05;;;2.75;;
15271;SDS011;7737;51.578;7.268;2023-05-08T09:30:03;4.03;;;2.95;;
15271;SDS011;7737;51.578;7.268;2023-05-08T09:32:31;3.67;;;3.10;;
15271;SDS011;7737;51.578;7.268;2023-05-08T09:34:59;3.85;;;3.28;;
15271;SDS011;7737;51.578;7.268;2023-05-08T09:37:26;4.03;;;3.30;;
15271;SDS011;7737;51.578;7.268;2023-05-08T09:39:55;3.72;;;3.20;;
15271;SDS011;7737;51.578;7.268;2023-05-08T09:42:38;4.03;;;3.70;;
15271;SDS011;7737;51.578;7.268;2023-05-08T09:45:05;5.40;;;3.95;;
15271;SDS011;7737;51.578;7.268;2023-05-08T09:47:32;4.75;;;4.10;;
15271;SDS011;7737;51.578;7.268;2023-05-08T09:50:02;4.93;;;3.90;;
15271;SDS011;7737;51.578;7.268;2023-05-08T09:52:30;4.50;;;4.10;;
15271;SDS011;7737;51.578;7.268;2023-05-08T09:54:59;4.00;;;3.70;;
15271;SDS011;7737;51.578;7.268;2023-05-08T09:57:27;4.30;;;3.67;;
15271;SDS011;7737;51.578;7.268;2023-05-08T10:00:03;4.05;;;3.75;;
15271;SDS011;7737;51.578;7.268;2023-05-08T10:02:31;3.70;;;3.40;;
15271;SDS011;7737;51.578;7.268;2023-05-08T10:04:58;4.35;;;3.95;;
15271;SDS011;7737;51.578;7.268;2023-05-08T10:07:28;3.85;;;3.55;;
15271;SDS011;7737;51.578;7.268;2023-05-08T10:10:00;4.20;;;3.80;;
15271;SDS011;7737;51.578;7.268;2023-05-08T10:12:28;5.30;;;3.85;;
15271;SDS011;7737;51.578;7.268;2023-05-08T10:14:56;3.83;;;3.53;;
15271;SDS011;7737;51.578;7.268;2023-05-08T10:17:24;4.30;;;3.90;;
15271;SDS011;7737;51.578;7.268;2023-05-08T10:19:54;5.55;;;3.63;;
15271;SDS011;7737;51.578;7.268;2023-05-08T10:22:25;7.10;;;3.80;;
15271;SDS011;7737;51.578;7.268;2023-05-08T10:24:54;3.60;;;3.30;;
15271;SDS011;7737;51.578;7.268;2023-05-08T10:27:27;3.30;;;3.08;;
15271;SDS011;7737;51.578;7.268;2023-05-08T10:30:00;4.80;;;3.70;;
15271;SDS011;7737;51.578;7.268;2023-05-08T10:32:30;6.45;;;3.90;;
15271;SDS011;7737;51.578;7.268;2023-05-08T10:35:08;4.05;;;3.65;;
15271;SDS011;7737;51.578;7.268;2023-05-08T10:37:37;3.72;;;3.35;;
15271;SDS011;7737;51.578;7.268;2023-05-08T10:40:06;3.70;;;3.40;;
15271;SDS011;7737;51.578;7.268;2023-05-08T10:42:36;3.70;;;2.85;;
15271;SDS011;7737;51.578;7.268;2023-05-08T10:45:04;4.95;;;3.10;;
15271;SDS011;7737;51.578;7.268;2023-05-08T10:47:38;3.50;;;3.20;;
15271;SDS011;7737;51.578;7.268;2023-05-08T10:50:26;4.80;;;3.20;;
15271;SDS011;7737;51.578;7.268;2023-05-08T10:53:03;3.63;;;3.28;;
15271;SDS011;7737;51.578;7.268;2023-05-08T10:55:35;4.38;;;3.97;;
15271;SDS011;7737;51.578;7.268;2023-05-08T10:58:04;4.03;;;3.58;;
15271;SDS011;7737;51.578;7.268;2023-05-08T11:03:37;3.80;;;3.50;;
15271;SDS011;7737;51.578;7.268;2023-05-08T11:06:04;4.03;;;3.63;;
15271;SDS011;7737;51.578;7.268;2023-05-08T11:08:31;3.88;;;3.55;;
15271;SDS011;7737;51.578;7.268;2023-05-08T11:11:00;4.80;;;3.53;;
15271;SDS011;7737;51.578;7.268;2023-05-08T11:13:33;4.25;;;3.67;;
15271;SDS011;7737;51.578;7.268;2023-05-08T11:16:00;3.63;;;3.10;;
15271;SDS011;7737;51.578;7.268;2023-05-08T11:18:30;4.00;;;3.65;;
15271;SDS011;7737;51.578;7.268;2023-05-08T11:20:57;4.07;;;3.40;;
15271;SDS011;7737;51.578;7.268;2023-05-08T11:23:25;3.55;;;3.25;;
15271;SDS011;7737;51.578;7.268;2023-05-08T11:25:59;3.88;;;3.22;;
15271;SDS011;7737;51.578;7.268;2023-05-08T11:28:29;3.08;;;2.83;;
15271;SDS011;7737;51.578;7.268;2023-05-08T11:31:02;3.60;;;3.30;;
15271;SDS011;7737;51.578;7.268;2023-05-08T11:33:30;4.22;;;3.40;;
15271;SDS011;7737;51.578;7.268;2023-05-08T11:35:58;3.40;;;3.10;;
15271;SDS011;7737;51.578;7.268;2023-05-08T11:38:27;3.40;;;3.10;;
15271;SDS011;7737;51.578;7.268;2023-05-08T11:40:56;3.42;;;3.13;;
15271;SDS011;7737;51.578;7.268;2023-05-08T11:43:24;4.43;;;3.35;;
15271;SDS011;7737;51.578;7.268;2023-05-08T11:46:18;3.38;;;3.10;;
15271;SDS011;7737;51.578;7.268;2023-05-08T11:48:46;3.78;;;3.22;;
15271;SDS011;7737;51.578;7.268;2023-05-08T11:51:15;3.55;;;3.20;;
15271;SDS011;7737;51.578;7.268;2023-05-08T11:53:43;3.00;;;2.80;;
15271;SDS011;7737;51.578;7.268;2023-05-08T11:56:10;3.42;;;3.00;;
15271;SDS011;7737;51.578;7.268;2023-05-08T11:58:37;3.40;;;2.80;;
15271;SDS011;7737;51.578;7.268;2023-05-08T12:01:04;2.42;;;2.08;;
15271;SDS011;7737;51.578;7.268;2023-05-08T12:03:32;3.28;;;2.80;;
15271;SDS011;7737;51.578;7.268;2023-05-08T12:05:58;3.33;;;2.72;;
15271;SDS011;7737;51.578;7.268;2023-05-08T12:08:28;3.35;;;3.03;;
15271;SDS011;7737;51.578;7.268;2023-05-08T12:10:55;2.70;;;2.50;;
15271;SDS011;7737;51.578;7.268;2023-05-08T12:13:24;3.88;;;2.65;;
15271;SDS011;7737;51.578;7.268;2023-05-08T12:15:52;2.47;;;2.28;;
15271;SDS011;7737;51.578;7.268;2023-05-08T12:18:21;4.03;;;2.20;;
15271;SDS011;7737;51.578;7.268;2023-05-08T12:20:53;2.90;;;1.90;;
15271;SDS011;7737;51.578;7.268;2023-05-08T12:23:21;2.30;;;2.00;;
15271;SDS011;7737;51.578;7.268;2023-05-08T12:25:50;1.77;;;1.40;;
15271;SDS011;7737;51.578;7.268;2023-05-08T12:28:18;1.48;;;1.38;;
15271;SDS011;7737;51.578;7.268;2023-05-08T12:30:45;2.45;;;1.45;;
15271;SDS011;7737;51.578;7.268;2023-05-08T12:33:11;1.85;;;1.38;;
15271;SDS011;7737;51.578;7.268;2023-05-08T12:35:38;2.10;;;1.40;;
15271;SDS011;7737;51.578;7.268;2023-05-08T12:38:06;1.70;;;1.60;;
15271;SDS011;7737;51.578;7.268;2023-05-08T12:40:38;1.98;;;1.30;;
15271;SDS011;7737;51.578;7.268;2023-05-08T12:43:07;2.95;;;1.70;;
15271;SDS011;7737;51.578;7.268;2023-05-08T12:45:35;2.13;;;1.17;;
15271;SDS011;7737;51.578;7.268;2023-05-08T12:48:06;1.65;;;1.55;;
15271;SDS011;7737;51.578;7.268;2023-05-08T12:50:34;1.60;;;1.50;;
15271;SDS011;7737;51.578;7.268;2023-05-08T12:53:03;1.98;;;1.58;;
15271;SDS011;7737;51.578;7.268;2023-05-08T12:55:33;1.70;;;1.60;;
15271;SDS011;7737;51.578;7.268;2023-05-08T12:58:01;1.70;;;1.60;;
15271;SDS011;7737;51.578;7.268;2023-05-08T13:00:36;1.98;;;1.60;;
15271;SDS011;7737;51.578;7.268;2023-05-08T13:03:04;1.73;;;1.45;;
15271;SDS011;7737;51.578;7.268;2023-05-08T13:05:32;2.67;;;1.70;;
15271;SDS011;7737;51.578;7.268;2023-05-08T13:08:00;1.60;;;1.50;;
15271;SDS011;7737;51.578;7.268;2023-05-08T13:13:21;2.42;;;1.77;;
15271;SDS011;7737;51.578;7.268;2023-05-08T13:15:49;2.55;;;2.35;;
15271;SDS011;7737;51.578;7.268;2023-05-08T13:18:16;2.95;;;2.28;;
15271;SDS011;7737;51.578;7.268;2023-05-08T13:20:44;2.35;;;2.20;;
15271;SDS011;7737;51.578;7.268;2023-05-08T13:23:10;2.30;;;2.17;;
15271;SDS011;7737;51.578;7.268;2023-05-08T13:25:38;2.97;;;2.50;;
15271;SDS011;7737;51.578;7.268;2023-05-08T13:28:06;2.80;;;2.60;;
15271;SDS011;7737;51.578;7.268;2023-05-08T13:30:35;2.72;;;2.53;;
15271;SDS011;7737;51.578;7.268;2023-05-08T13:33:02;2.63;;;2.42;;
15271;SDS011;7737;51.578;7.268;2023-05-08T13:35:29;2.80;;;2.60;;
15271;SDS011;7737;51.578;7.268;2023-05-08T13:37:56;2.88;;;2.67;;
15271;SDS011;7737;51.578;7.268;2023-05-08T13:40:24;3.67;;;2.88;;
15271;SDS011;7737;51.578;7.268;2023-05-08T13:42:50;3.67;;;2.97;;
15271;SDS011;7737;51.578;7.268;2023-05-08T13:45:17;3.40;;;3.20;;
15271;SDS011;7737;51.578;7.268;2023-05-08T13:47:46;3.22;;;2.92;;
15271;SDS011;7737;51.578;7.268;2023-05-08T13:50:14;3.97;;;3.03;;
15271;SDS011;7737;51.578;7.268;2023-05-08T13:52:42;3.10;;;2.90;;
15271;SDS011;7737;51.578;7.268;2023-05-08T13:55:09;3.28;;;2.97;;
15271;SDS011;7737;51.578;7.268;2023-05-08T13:57:37;3.25;;;2.80;;
15271;SDS011;7737;51.578;7.268;2023-05-08T14:00:04;2.97;;;2.78;;
15271;SDS011;7737;51.578;7.268;2023-05-08T14:02:32;3.13;;;2.92;;
15271;SDS011;7737;51.578;7.268;2023-05-08T14:05:00;3.38;;;3.08;;
15271;SDS011;7737;51.578;7.268;2023-05-08T14:07:27;3.33;;;2.90;;
15271;SDS011;7737;51.578;7.268;2023-05-08T14:09:54;3.80;;;3.42;;
15271;SDS011;7737;51.578;7.268;2023-05-08T14:12:20;4.65;;;3.40;;
15271;SDS011;7737;51.578;7.268;2023-05-08T14:14:47;3.72;;;3.42;;
15271;SDS011;7737;51.578;7.268;2023-05-08T14:17:13;4.00;;;3.60;;
15271;SDS011;7737;51.578;7.268;2023-05-08T14:19:40;4.03;;;3.60;;
15271;SDS011;7737;51.578;7.268;2023-05-08T14:22:08;4.40;;;3.88;;
15271;SDS011;7737;51.578;7.268;2023-05-08T14:24:35;5.03;;;3.67;;
15271;SDS011;7737;51.578;7.268;2023-05-08T14:27:01;4.07;;;3.70;;
15271;SDS011;7737;51.578;7.268;2023-05-08T14:29:30;4.15;;;3.72;;
15271;SDS011;7737;51.578;7.268;2023-05-08T14:31:56;4.10;;;3.70;;
15271;SDS011;7737;51.578;7.268;2023-05-08T14:34:23;4.03;;;3.65;;
15271;SDS011;7737;51.578;7.268;2023-05-08T14:36:49;3.65;;;3.35;;
15271;SDS011;7737;51.578;7.268;2023-05-08T14:39:17;4.30;;;3.90;;
15271;SDS011;7737;51.578;7.268;2023-05-08T14:41:44;5.20;;;3.70;;
15271;SDS011;7737;51.578;7.268;2023-05-08T14:44:10;4.10;;;3.80;;
15271;SDS011;7737;51.578;7.268;2023-05-08T14:46:37;4.78;;;3.78;;
15271;SDS011;7737;51.578;7.268;2023-05-08T14:49:03;4.80;;;4.03;;
15271;SDS011;7737;51.578;7.268;2023-05-08T14:51:30;4.20;;;3.83;;
15271;SDS011;7737;51.578;7.268;2023-05-08T14:53:56;4.57;;;4.18;;
15271;SDS011;7737;51.578;7.268;2023-05-08T14:56:24;4.18;;;3.78;;
15271;SDS011;7737;51.578;7.268;2023-05-08T14:58:52;4.20;;;3.90;;
15271;SDS011;7737;51.578;7.268;2023-05-08T15:01:19;4.30;;;3.90;;